Time;durP1;ratioP1;P1;durP2;ratioP2;P2;SDS_P1;SDS_P2;PMS_P1;PMS_P2;Temp;Humidity;BMP_temperature;BMP_pressure;BME280_temperature;BME280_humidity;BME280_pressure;Samples;Min_cycle;Max_cycle;Signal;HPM_P1;HPM_P2
2021/11/23 00:02:54;;;;;;;;;41.50;39.25;;;;;8.54;84.51;101280.47;4927155;29;11670;-75
2021/11/23 00:05:50;;;;;;;;;31.75;31.75;;;;;8.31;85.51;101288.53;4935266;29;11566;-74
2021/11/23 00:08:46;;;;;;;;;34.50;34.00;;;;;8.45;84.90;101283.09;4935416;29;11570;-74
2021/11/23 00:11:41;;;;;;;;;29.25;28.75;;;;;8.39;84.24;101276.03;4935285;29;11624;-75
2021/11/23 00:14:37;;;;;;;;;35.50;33.25;;;;;8.27;84.81;101279.22;4935142;29;11681;-74
2021/11/23 00:17:33;;;;;;;;;31.50;30.75;;;;;8.29;84.51;101274.25;4935404;29;11554;-75
2021/11/23 00:20:28;;;;;;;;;30.50;28.50;;;;;8.13;84.60;101277.53;4934666;29;12429;-75
2021/11/23 00:23:24;;;;;;;;;26.25;26.25;;;;;8.20;84.53;101269.69;4935280;29;11541;-75
2021/11/23 00:26:20;;;;;;;;;19.25;19.25;;;;;8.24;84.09;101263.31;4916896;29;11561;-75
2021/11/23 00:29:15;;;;;;;;;28.50;25.50;;;;;8.27;84.03;101264.63;4916032;29;11553;-75
2021/11/23 00:32:11;;;;;;;;;25.50;25.00;;;;;7.94;84.69;101267.38;4931169;29;12420;-76
2021/11/23 00:35:07;;;;;;;;;24.00;22.75;;;;;7.98;84.86;101262.09;4934792;29;11542;-75
2021/11/23 00:38:04;;;;;;;;;28.25;28.25;;;;;8.06;84.20;101264.16;4935009;29;11645;-75
2021/11/23 00:41:00;;;;;;;;;14.50;14.50;;;;;7.85;85.12;101265.59;4934638;29;12258;-75
2021/11/23 00:43:56;;;;;;;;;27.00;25.25;;;;;7.90;84.69;101266.34;4934700;29;11628;-75
2021/11/23 00:46:51;;;;;;;;;30.00;29.25;;;;;7.78;84.93;101272.28;4923023;29;11553;-75
2021/11/23 00:49:47;;;;;;;;;31.25;28.50;;;;;7.64;85.19;101267.81;4935517;29;11644;-76
2021/11/23 00:52:44;;;;;;;;;34.50;34.25;;;;;7.76;84.74;101259.94;4916756;29;11550;-75
2021/11/23 00:55:40;;;;;;;;;32.00;31.50;;;;;7.92;84.47;101263.28;4903186;29;11565;-75
2021/11/23 00:58:36;;;;;;;;;29.25;28.50;;;;;7.89;84.21;101272.94;4915926;29;11978;-75
2021/11/23 01:01:32;;;;;;;;;18.00;18.00;;;;;7.98;83.75;101264.84;4930878;29;12324;-76
2021/11/23 01:04:27;;;;;;;;;16.25;16.25;;;;;7.90;83.53;101269.09;4929130;29;11522;-76
2021/11/23 01:07:23;;;;;;;;;25.25;25.25;;;;;7.87;83.73;101277.94;4934815;29;11515;-75
2021/11/23 01:10:19;;;;;;;;;24.75;24.75;;;;;7.70;84.19;101272.16;4934337;29;11530;-75
2021/11/23 01:13:15;;;;;;;;;26.75;26.25;;;;;7.70;84.60;101263.88;4934720;29;12319;-76
2021/11/23 01:16:11;;;;;;;;;26.00;26.00;;;;;7.77;84.49;101258.81;4935261;29;11567;-75
2021/11/23 01:19:09;;;;;;;;;28.25;25.50;;;;;7.75;84.25;101263.81;4935431;29;11567;-75
2021/11/23 01:22:05;;;;;;;;;25.75;25.75;;;;;7.63;84.58;101266.19;4938408;29;11563;-76
2021/11/23 01:25:00;;;;;;;;;28.25;28.25;;;;;7.48;84.57;101268.03;4937527;29;11541;-75
2021/11/23 01:27:57;;;;;;;;;29.00;28.00;;;;;7.66;84.44;101271.91;4938366;29;11648;-74
2021/11/23 01:30:53;;;;;;;;;25.00;25.00;;;;;7.73;84.11;101269.59;4938575;29;11534;-75
2021/11/23 01:33:49;;;;;;;;;18.00;18.00;;;;;7.67;83.61;101264.50;4938222;29;11526;-74
2021/11/23 01:36:45;;;;;;;;;19.25;19.25;;;;;7.77;83.80;101256.88;4925531;29;11736;-75
2021/11/23 01:39:41;;;;;;;;;13.75;13.75;;;;;7.92;82.40;101257.78;4937221;29;11552;-74
2021/11/23 01:42:37;;;;;;;;;14.25;14.25;;;;;8.01;82.31;101262.28;4937202;29;11528;-74
2021/11/23 01:45:35;;;;;;;;;14.75;14.75;;;;;7.80;82.38;101260.97;4937603;29;11468;-74
2021/11/23 01:48:32;;;;;;;;;14.75;14.75;;;;;7.94;82.38;101261.03;4937854;29;11612;-74
2021/11/23 01:51:31;;;;;;;;;18.00;17.00;;;;;7.95;82.76;101263.50;4937589;29;11473;-74
2021/11/23 01:54:27;;;;;;;;;11.25;11.25;;;;;7.97;83.04;101271.44;4937633;29;11608;-74
2021/11/23 01:57:23;;;;;;;;;15.75;15.75;;;;;7.85;83.22;101273.84;4924291;29;11540;-74
2021/11/23 02:00:19;;;;;;;;;16.25;16.25;;;;;7.88;83.30;101274.06;4935449;29;11555;-74
2021/11/23 02:03:15;;;;;;;;;18.25;17.50;;;;;7.99;82.77;101269.25;4936376;29;11521;-74
2021/11/23 02:06:11;;;;;;;;;16.75;16.75;;;;;7.95;82.80;101277.25;4937384;29;11494;-76
2021/11/23 02:09:07;;;;;;;;;13.00;13.00;;;;;7.90;82.62;101268.25;4936595;29;11534;-77
2021/11/23 02:12:03;;;;;;;;;12.00;11.00;;;;;7.63;81.89;101279.94;4936101;29;11423;-76
2021/11/23 02:14:59;;;;;;;;;11.00;11.00;;;;;7.68;81.47;101285.41;4924327;29;11467;-77
2021/11/23 02:17:55;;;;;;;;;9.00;9.00;;;;;7.81;80.39;101292.91;4925664;29;11480;-76
2021/11/23 02:20:52;;;;;;;;;6.00;6.00;;;;;7.42;80.54;101282.16;4937083;29;11418;-76
2021/11/23 02:23:48;;;;;;;;;6.50;6.50;;;;;7.61;80.20;101287.69;4936303;29;11462;-75
2021/11/23 02:26:44;;;;;;;;;7.50;7.50;;;;;7.61;80.03;101294.03;4936669;29;12334;-76
2021/11/23 02:29:39;;;;;;;;;6.00;6.00;;;;;7.57;79.92;101289.38;4936482;29;11438;-76
2021/11/23 02:32:42;;;;;;;;;8.00;8.00;;;;;7.58;80.37;101296.53;4936178;29;11444;-76
2021/11/23 02:35:38;;;;;;;;;6.75;6.75;;;;;7.64;80.07;101296.16;4919969;28;11462;-76
2021/11/23 02:38:36;;;;;;;;;6.75;6.00;;;;;7.21;81.39;101289.88;4929529;29;11402;-76
2021/11/23 02:41:32;;;;;;;;;7.50;7.50;;;;;7.37;80.71;101296.81;4936365;29;11445;-76
2021/11/23 02:44:28;;;;;;;;;6.50;6.50;;;;;7.09;80.61;101293.00;4936077;29;11418;-77
2021/11/23 02:47:24;;;;;;;;;8.75;8.75;;;;;7.29;79.97;101294.72;4937018;29;11527;-76
2021/11/23 02:50:21;;;;;;;;;6.75;6.75;;;;;7.09;80.50;101290.25;4936625;29;11601;-76
2021/11/23 02:53:17;;;;;;;;;5.00;5.00;;;;;7.27;79.99;101285.91;4937048;29;12169;-76
2021/11/23 02:56:13;;;;;;;;;8.00;8.00;;;;;7.09;79.52;101284.75;4936205;29;11523;-76
2021/11/23 02:59:09;;;;;;;;;10.25;9.00;;;;;7.04;79.89;101292.25;4936561;29;11514;-76
2021/11/23 03:02:09;;;;;;;;;3.50;3.50;;;;;7.32;79.33;101291.34;4916975;29;11567;-76
2021/11/23 03:05:08;;;;;;;;;5.75;5.75;;;;;7.33;79.30;101281.16;4917651;29;11470;-76
2021/11/23 03:08:04;;;;;;;;;9.00;9.00;;;;;7.19;79.44;101276.38;4917821;29;11439;-76
2021/11/23 03:11:00;;;;;;;;;5.75;5.75;;;;;7.33;79.67;101282.00;4930018;29;12202;-76
2021/11/23 03:13:55;;;;;;;;;7.50;7.50;;;;;7.31;78.88;101275.97;4936279;29;11553;-76
2021/11/23 03:16:51;;;;;;;;;8.00;8.00;;;;;7.01;80.63;101273.59;4936572;29;11581;-76
2021/11/23 03:19:49;;;;;;;;;9.00;9.00;;;;;7.09;80.48;101273.75;4936217;29;11509;-76
2021/11/23 03:22:46;;;;;;;;;6.75;6.75;;;;;7.16;80.32;101267.91;4936453;29;11518;-76
2021/11/23 03:25:41;;;;;;;;;6.75;6.75;;;;;7.32;80.07;101280.34;4936446;29;12227;-75
2021/11/23 03:28:37;;;;;;;;;8.25;6.25;;;;;7.21;80.60;101295.38;4936423;28;11497;-73
2021/11/23 03:31:33;;;;;;;;;6.00;5.25;;;;;6.99;80.62;101300.56;4936186;29;11507;-79
2021/11/23 03:34:36;;;;;;;;;13.50;13.50;;;;;6.99;80.07;101306.88;4935584;29;12240;-73
2021/11/23 03:37:32;;;;;;;;;10.00;10.00;;;;;6.78;79.77;101300.78;4935598;29;11521;-74
2021/11/23 03:40:29;;;;;;;;;15.00;14.00;;;;;6.79;80.34;101310.66;4935610;29;12341;-73
2021/11/23 03:43:25;;;;;;;;;20.00;18.50;;;;;6.86;80.17;101313.06;4935678;29;11537;-76
2021/11/23 03:46:20;;;;;;;;;15.00;15.00;;;;;6.64;80.84;101327.31;4935579;29;12215;-73
2021/11/23 03:49:16;;;;;;;;;15.25;15.25;;;;;6.53;80.50;101325.75;4935535;29;11555;-76
2021/11/23 03:52:13;;;;;;;;;17.00;17.00;;;;;6.37;80.57;101328.66;4935827;29;11547;-75
2021/11/23 03:55:14;;;;;;;;;0.00;0.00;;;;;6.59;80.12;101330.91;4935760;29;11502;-74
2021/11/23 03:58:10;;;;;;;;;13.00;10.50;;;;;6.66;78.81;101327.81;4935992;29;11631;-74
2021/11/23 04:01:06;;;;;;;;;14.00;13.00;;;;;6.52;78.15;101329.63;4935427;29;11522;-75
2021/11/23 04:04:03;;;;;;;;;10.00;10.00;;;;;6.33;77.96;101343.22;4936013;29;11486;-74
2021/11/23 04:06:59;;;;;;;;;10.50;10.50;;;;;6.27;77.40;101347.94;4935590;29;11509;-75
2021/11/23 04:09:55;;;;;;;;;6.75;6.75;;;;;6.10;77.21;101342.84;4935397;29;11593;-76
2021/11/23 04:12:51;;;;;;;;;9.75;9.75;;;;;6.09;77.34;101343.94;4935533;29;11575;-75
2021/11/23 04:15:47;;;;;;;;;9.75;9.75;;;;;5.89;77.33;101356.94;4935531;29;11516;-76
2021/11/23 04:18:44;;;;;;;;;13.00;13.00;;;;;5.88;77.59;101355.31;4934475;29;11551;-75
2021/11/23 04:21:40;;;;;;;;;16.25;16.25;;;;;5.92;76.03;101359.16;4935579;29;11542;-74
2021/11/23 04:24:36;;;;;;;;;8.75;8.75;;;;;5.81;75.77;101364.66;4935275;29;11509;-76
2021/11/23 04:27:33;;;;;;;;;9.00;9.00;;;;;5.76;75.24;101356.47;4934978;29;11502;-75
2021/11/23 04:30:30;;;;;;;;;13.00;13.00;;;;;5.72;75.10;101360.06;4935089;29;11608;-76
2021/11/23 04:33:26;;;;;;;;;16.25;14.50;;;;;5.69;74.82;101358.69;4935780;29;11497;-76
2021/11/23 04:36:21;;;;;;;;;10.00;10.00;;;;;5.64;74.26;101363.38;4935200;29;11693;-75
2021/11/23 04:39:17;;;;;;;;;9.00;9.00;;;;;5.64;74.18;101369.69;4935042;29;11593;-74
2021/11/23 04:42:13;;;;;;;;;10.50;10.50;;;;;5.74;73.92;101377.03;4935071;29;11509;-75
2021/11/23 04:45:11;;;;;;;;;9.50;9.50;;;;;5.57;73.90;101370.00;4935611;29;12326;-75
2021/11/23 04:48:07;;;;;;;;;12.75;12.25;;;;;5.54;73.96;101377.97;4934753;29;11538;-74
2021/11/23 04:51:02;;;;;;;;;12.00;10.50;;;;;5.84;73.28;101386.06;4935759;29;11660;-75
2021/11/23 04:53:58;;;;;;;;;9.50;9.50;;;;;5.95;72.29;101389.59;4934340;29;11639;-74
2021/11/23 04:56:54;;;;;;;;;1.75;1.50;;;;;5.75;72.19;101386.91;4934796;29;11517;-75
2021/11/23 04:59:50;;;;;;;;;12.00;10.50;;;;;5.72;71.72;101393.81;4934659;28;11494;-75
2021/11/23 05:02:46;;;;;;;;;11.50;11.50;;;;;5.68;72.02;101389.19;4934805;29;11645;-75
2021/11/23 05:05:42;;;;;;;;;11.50;11.50;;;;;5.77;71.79;101385.56;4934785;29;11619;-74
2021/11/23 05:08:38;;;;;;;;;13.50;13.50;;;;;5.85;71.58;101401.44;4917201;29;11531;-74
2021/11/23 05:11:36;;;;;;;;;16.00;16.00;;;;;5.76;71.10;101403.13;4933457;29;11603;-74
2021/11/23 05:14:32;;;;;;;;;12.00;12.00;;;;;5.54;71.24;101402.66;4934874;29;11541;-75
2021/11/23 05:17:28;;;;;;;;;13.50;13.50;;;;;5.53;71.57;101403.78;4934268;29;11519;-76
2021/11/23 05:20:23;;;;;;;;;9.00;9.00;;;;;5.39;71.65;101406.28;4934875;29;11589;-75
2021/11/23 05:23:19;;;;;;;;;11.00;10.50;;;;;5.58;71.41;101414.72;4915697;29;11587;-75
2021/11/23 05:26:15;;;;;;;;;5.00;5.00;;;;;5.80;70.46;101425.34;4915539;29;11531;-73
2021/11/23 05:29:11;;;;;;;;;6.00;6.00;;;;;5.43;71.29;101439.44;4915534;29;11499;-74
2021/11/23 05:32:07;;;;;;;;;5.00;5.00;;;;;5.56;71.06;101438.88;4924989;29;11511;-73
2021/11/23 05:35:03;;;;;;;;;6.75;6.75;;;;;5.63;71.00;101447.63;4934272;29;11511;-73
2021/11/23 05:37:59;;;;;;;;;15.75;15.75;;;;;5.66;74.37;101447.06;4932858;29;11522;-74
2021/11/23 05:40:54;;;;;;;;;19.25;19.25;;;;;6.30;77.80;101442.72;4933024;29;11546;-73
2021/11/23 05:43:51;;;;;;;;;52.25;45.25;;;;;7.06;81.88;101442.13;4920904;29;12282;-73
2021/11/23 05:46:46;;;;;;;;;18.50;18.50;;;;;6.61;74.17;101448.81;4916197;29;11592;-72
2021/11/23 05:49:43;;;;;;;;;14.00;11.50;;;;;7.02;77.67;101451.25;4916193;29;11640;-72
2021/11/23 05:52:39;;;;;;;;;11.00;11.00;;;;;6.72;74.22;101453.13;4915382;29;11598;-72
2021/11/23 05:55:35;;;;;;;;;24.25;24.25;;;;;7.83;87.91;101453.16;4915427;29;11550;-72
2021/11/23 05:58:30;;;;;;;;;18.25;18.25;;;;;7.61;79.57;101463.88;4915328;29;11655;-72
2021/11/23 06:01:26;;;;;;;;;23.25;23.25;;;;;7.43;78.47;101460.75;4915469;29;11515;-73
2021/11/23 06:04:22;;;;;;;;;10.25;10.25;;;;;6.65;69.12;101467.19;4915608;29;11554;-73
2021/11/23 06:07:17;;;;;;;;;8.50;8.50;;;;;7.00;72.10;101468.03;4918518;29;11450;-74
2021/11/23 06:10:13;;;;;;;;;17.50;17.50;;;;;7.58;78.81;101464.44;4918603;29;11597;-73
2021/11/23 06:13:11;;;;;;;;;18.50;18.50;;;;;8.11;83.05;101459.69;4918601;29;11540;-73
2021/11/23 06:16:07;;;;;;;;;8.50;8.50;;;;;7.46;69.54;101471.19;4918505;29;11573;-73
2021/11/23 06:19:03;;;;;;;;;18.25;18.25;;;;;8.36;80.94;101466.84;4918526;29;11490;-73
2021/11/23 06:21:59;;;;;;;;;14.50;14.50;;;;;7.95;73.29;101469.25;4918295;29;11615;-73
2021/11/23 06:24:55;;;;;;;;;26.50;25.75;;;;;7.81;76.44;101466.38;4918517;29;11478;-75
2021/11/23 06:27:51;;;;;;;;;14.25;14.25;;;;;7.27;67.94;101481.25;4918225;29;11625;-72
2021/11/23 06:30:47;;;;;;;;;13.50;13.50;;;;;7.36;75.93;101468.53;4918098;29;11533;-73
2021/11/23 06:33:43;;;;;;;;;12.75;12.75;;;;;7.17;73.74;101467.63;4918229;29;11524;-74
2021/11/23 06:36:40;;;;;;;;;15.00;15.00;;;;;7.22;69.84;101471.16;4917988;29;11540;-72
2021/11/23 06:39:36;;;;;;;;;11.50;11.50;;;;;7.08;74.71;101464.66;4918130;29;11539;-72
2021/11/23 06:42:32;;;;;;;;;10.00;10.00;;;;;7.53;75.29;101465.34;4918161;29;11550;-72
2021/11/23 06:45:27;;;;;;;;;17.75;17.50;;;;;7.87;71.14;101473.47;4917901;29;11512;-72
2021/11/23 06:48:23;;;;;;;;;8.00;8.00;;;;;7.52;68.37;101472.78;4927105;29;11629;-73
2021/11/23 06:50:53;;;;;;;;;6.75;6.75;;;;;7.32;70.75;101472.16;4937006;29;11494;-71
2021/11/23 06:53:48;;;;;;;;;6.75;6.75;;;;;6.55;66.52;101470.03;4936006;29;11433;-70
2021/11/23 06:56:44;;;;;;;;;19.25;9.25;;;;;6.76;66.07;101470.72;4935881;29;11548;-71
2021/11/23 06:59:40;;;;;;;;;4.00;4.00;;;;;6.39;65.27;101480.28;4935709;28;12308;-71
2021/11/23 07:02:36;;;;;;;;;7.50;7.50;;;;;6.19;65.97;101474.88;4934534;28;11462;-71
2021/11/23 07:05:32;;;;;;;;;11.00;11.00;;;;;6.57;66.37;101483.47;4913753;29;11482;-70
2021/11/23 07:08:27;;;;;;;;;6.75;6.75;;;;;6.34;65.67;101490.47;4936534;29;11521;-72
2021/11/23 07:11:23;;;;;;;;;10.00;10.00;;;;;6.47;65.27;101491.78;4936009;29;12310;-70
2021/11/23 07:14:20;;;;;;;;;11.25;11.25;;;;;6.43;65.00;101490.69;4935817;29;11481;-70
2021/11/23 07:17:15;;;;;;;;;12.00;12.00;;;;;6.36;65.35;101497.34;4934927;29;11620;-70
2021/11/23 07:20:11;;;;;;;;;13.25;13.00;;;;;6.15;64.96;101493.06;4934616;29;11526;-69
2021/11/23 07:23:08;;;;;;;;;16.25;15.25;;;;;6.12;65.00;101491.66;4932747;28;11654;-70
2021/11/23 07:26:03;;;;;;;;;10.75;10.00;;;;;5.97;64.45;101497.22;4935285;29;12425;-70
2021/11/23 07:29:00;;;;;;;;;16.25;16.25;;;;;5.91;64.77;101501.13;4936001;29;11540;-70
2021/11/23 07:31:56;;;;;;;;;10.00;10.00;;;;;6.17;64.63;101501.81;4935802;29;11531;-67
2021/11/23 07:34:51;;;;;;;;;20.00;15.75;;;;;6.31;64.47;101508.34;4936477;29;12261;-68
2021/11/23 07:37:47;;;;;;;;;17.25;17.25;;;;;6.51;64.48;101510.16;4935910;29;11534;-69
2021/11/23 07:40:44;;;;;;;;;11.50;11.50;;;;;6.47;62.95;101525.59;4935856;29;11524;-69
2021/11/23 07:43:40;;;;;;;;;13.50;13.50;;;;;6.46;63.00;101518.44;4935545;29;12269;-68
2021/11/23 07:46:36;;;;;;;;;14.50;10.75;;;;;6.30;62.86;101517.69;4935667;29;11509;-68
2021/11/23 07:49:32;;;;;;;;;17.25;15.00;;;;;6.48;62.96;101518.16;4935352;29;12307;-69
2021/11/23 07:52:27;;;;;;;;;24.25;23.25;;;;;6.59;62.45;101522.47;4935812;29;11529;-67
2021/11/23 07:55:23;;;;;;;;;1.00;1.00;;;;;6.58;62.42;101524.41;4934685;29;11551;-67
2021/11/23 07:58:19;;;;;;;;;7.25;7.25;;;;;6.30;62.54;101525.94;4922736;29;11484;-67
2021/11/23 08:01:15;;;;;;;;;2.25;2.25;;;;;6.22;61.89;101518.28;4935344;29;11484;-67
2021/11/23 08:04:10;;;;;;;;;9.00;8.00;;;;;6.30;62.23;101523.19;4936004;29;11490;-67
2021/11/23 08:07:06;;;;;;;;;7.25;7.25;;;;;6.25;62.62;101523.22;4936070;29;11551;-68
2021/11/23 08:10:03;;;;;;;;;9.25;8.00;;;;;6.39;62.83;101529.75;4934841;29;11501;-68
2021/11/23 08:13:00;;;;;;;;;11.75;11.75;;;;;6.59;62.91;101520.56;4916992;29;11557;-68
2021/11/23 08:15:56;;;;;;;;;7.75;7.75;;;;;6.57;62.32;101524.69;4916250;29;11537;-68
2021/11/23 08:18:51;;;;;;;;;5.75;5.75;;;;;6.55;60.94;101525.00;4932289;29;12256;-68
2021/11/23 08:21:49;;;;;;;;;12.00;12.00;;;;;6.73;60.87;101529.00;4934850;29;11504;-68
2021/11/23 08:24:44;;;;;;;;;8.50;8.50;;;;;6.58;60.39;101521.66;4935033;29;11517;-68
2021/11/23 08:27:41;;;;;;;;;9.00;6.75;;;;;6.72;59.79;101518.28;4920599;29;11604;-69
2021/11/23 08:30:36;;;;;;;;;6.00;6.00;;;;;6.90;59.05;101509.34;4934427;29;11466;-68
2021/11/23 08:33:32;;;;;;;;;6.50;6.50;;;;;6.85;58.51;101515.72;4920824;29;11487;-68
2021/11/23 08:36:28;;;;;;;;;7.00;7.00;;;;;6.95;58.38;101510.16;4934909;29;11473;-68
2021/11/23 08:39:23;;;;;;;;;9.50;9.50;;;;;7.07;58.82;101514.47;4935351;29;11500;-68
2021/11/23 08:42:20;;;;;;;;;22.00;13.50;;;;;7.14;57.73;101515.78;4932923;29;11471;-68
2021/11/23 08:45:16;;;;;;;;;5.00;5.00;;;;;7.14;56.84;101518.53;4930227;29;12284;-68
2021/11/23 08:48:13;;;;;;;;;3.00;3.00;;;;;7.12;55.06;101508.91;4932064;29;11476;-68
2021/11/23 08:51:14;;;;;;;;;9.00;9.00;;;;;7.23;54.20;101519.56;4933504;29;11560;-68
2021/11/23 08:54:11;;;;;;;;;2.25;2.25;;;;;7.30;54.35;101507.41;4932764;29;11491;-68
2021/11/23 08:57:08;;;;;;;;;4.50;4.50;;;;;7.35;53.02;101507.34;4932784;29;11483;-68
2021/11/23 09:03:07;;;;;;;;;2.00;2.00;;;;;7.55;50.78;101507.16;4933216;29;12221;-69
2021/11/23 09:06:03;;;;;;;;;2.50;2.00;;;;;7.22;52.90;101509.66;4932645;29;12244;-68
2021/11/23 09:08:59;;;;;;;;;5.75;5.75;;;;;7.33;53.73;101502.13;4932395;29;11513;-69
2021/11/23 09:11:57;;;;;;;;;6.00;6.00;;;;;7.44;51.49;101506.44;4933400;29;11432;-67
2021/11/23 09:14:53;;;;;;;;;7.00;5.75;;;;;7.43;50.82;101507.53;4932892;29;11608;-67
2021/11/23 09:17:50;;;;;;;;;6.50;6.50;;;;;7.41;50.11;101507.00;4932490;29;11448;-68
2021/11/23 09:20:46;;;;;;;;;7.00;7.00;;;;;7.48;50.13;101509.41;4931311;29;11544;-68
2021/11/23 09:23:42;;;;;;;;;2.25;2.25;;;;;7.47;50.53;101516.03;4933637;29;11562;-69
2021/11/23 09:26:38;;;;;;;;;3.50;3.50;;;;;7.31;49.32;101518.13;4932987;29;11454;-68
2021/11/23 09:29:34;;;;;;;;;4.00;4.00;;;;;7.46;48.93;101517.97;4931602;29;11456;-68
2021/11/23 09:32:30;;;;;;;;;4.00;4.00;;;;;7.32;48.90;101519.75;4930981;29;11443;-68
2021/11/23 09:35:26;;;;;;;;;7.50;6.00;;;;;7.58;49.72;101519.50;4932974;29;11429;-68
2021/11/23 09:38:21;;;;;;;;;11.75;11.00;;;;;7.77;50.13;101521.25;4930405;29;11572;-69
2021/11/23 09:41:17;;;;;;;;;10.00;6.00;;;;;7.63;50.60;101525.78;4934672;29;11449;-68
2021/11/23 09:44:13;;;;;;;;;3.00;2.25;;;;;7.56;48.67;101552.84;4935121;29;11523;-68
2021/11/23 09:47:09;;;;;;;;;3.00;3.00;;;;;7.45;48.33;101538.34;4934666;29;11485;-67
2021/11/23 09:50:05;;;;;;;;;11.75;11.75;;;;;7.24;49.63;101532.19;4934388;29;11509;-67
2021/11/23 09:53:01;;;;;;;;;6.25;6.25;;;;;7.26;49.66;101526.41;4933922;29;11560;-69
2021/11/23 09:55:57;;;;;;;;;3.50;3.50;;;;;7.32;50.35;101530.75;4936402;29;11450;-68
2021/11/23 09:58:57;;;;;;;;;11.50;10.50;;;;;7.45;49.88;101532.84;4936291;29;11525;-68
2021/11/23 10:01:56;;;;;;;;;15.00;14.50;;;;;7.67;50.14;101526.03;4937162;29;11722;-69
2021/11/23 10:05:07;;;;;;;;;14.25;14.25;;;;;7.56;48.05;101524.50;4935163;29;11567;-68
2021/11/23 10:08:21;;;;;;;;;9.00;9.00;;;;;7.72;47.74;101535.06;4934078;29;11470;-69
2021/11/23 10:11:24;;;;;;;;;12.25;10.25;;;;;7.61;47.93;101535.47;4922973;29;11551;-67
2021/11/23 10:14:21;;;;;;;;;11.50;11.50;;;;;7.59;49.32;101534.91;4921459;29;11485;-68
2021/11/23 10:17:26;;;;;;;;;14.00;13.50;;;;;7.48;48.91;101523.19;4935250;29;12262;-68
2021/11/23 10:20:38;;;;;;;;;19.75;18.25;;;;;7.50;49.18;101526.47;4933273;29;11673;-68
2021/11/23 10:23:43;;;;;;;;;28.75;18.25;;;;;7.73;49.74;101531.19;4934076;29;11712;-68
2021/11/23 10:26:39;;;;;;;;;28.75;27.25;;;;;7.44;49.89;101522.13;4935549;29;12334;-68
2021/11/23 10:29:50;;;;;;;;;33.00;25.50;;;;;7.49;50.50;101525.63;4934312;29;11534;-67
2021/11/23 10:32:48;;;;;;;;;20.25;16.75;;;;;7.54;50.52;101530.28;4922818;29;11608;-68
2021/11/23 10:35:48;;;;;;;;;30.50;29.50;;;;;7.67;49.67;101526.88;4936488;29;11650;-66
2021/11/23 10:38:45;;;;;;;;;19.75;19.75;;;;;7.81;48.61;101533.28;4935459;29;11537;-67
2021/11/23 10:41:49;;;;;;;;;26.25;23.50;;;;;8.34;48.96;101532.41;4935626;29;11495;-68
2021/11/23 10:44:53;;;;;;;;;25.25;20.75;;;;;8.47;48.77;101526.22;4933451;29;11554;-67
2021/11/23 10:47:21;;;;;;;;;7.00;7.00;;;;;8.50;46.46;101520.09;4935658;29;11568;-69
2021/11/23 10:50:20;;;;;;;;;9.25;9.25;;;;;8.07;46.25;101520.06;4934233;29;11550;-68
2021/11/23 10:53:22;;;;;;;;;10.00;10.00;;;;;8.42;47.02;101515.25;4933025;29;11445;-68
2021/11/23 10:56:20;;;;;;;;;7.50;7.50;;;;;8.60;47.21;101510.88;4934473;29;11489;-71
2021/11/23 10:59:16;;;;;;;;;9.25;9.25;;;;;8.58;46.73;101513.09;4934420;29;11458;-70
2021/11/23 11:02:12;;;;;;;;;10.75;8.75;;;;;8.28;46.77;101511.53;4922288;29;12210;-70
2021/11/23 11:05:15;;;;;;;;;7.00;7.00;;;;;8.12;46.54;101519.19;4932889;29;11440;-70
2021/11/23 11:08:14;;;;;;;;;8.75;7.00;;;;;8.18;46.40;101519.94;4933258;29;11445;-70
2021/11/23 11:11:16;;;;;;;;;7.25;7.25;;;;;8.28;46.46;101525.31;4935107;29;11422;-68
2021/11/23 11:14:14;;;;;;;;;12.50;12.50;;;;;8.07;47.21;101524.75;4933066;29;11426;-68
2021/11/23 11:17:10;;;;;;;;;6.25;6.25;;;;;7.67;48.36;101523.28;4932528;29;11513;-69
2021/11/23 11:20:11;;;;;;;;;23.75;22.75;;;;;7.85;48.54;101528.03;4923006;29;11418;-72
2021/11/23 11:23:32;;;;;;;;;0.50;0.25;;;;;7.90;48.18;101521.63;4932977;29;11539;-72
2021/11/23 11:26:39;;;;;;;;;10.75;10.75;;;;;8.02;49.21;101530.31;4932664;29;11613;-72
2021/11/23 11:29:35;;;;;;;;;16.75;16.50;;;;;8.28;48.52;101511.53;4935106;29;11458;-71
2021/11/23 11:32:35;;;;;;;;;11.25;11.25;;;;;8.27;48.39;101516.22;4932411;29;11505;-72
2021/11/23 11:35:34;;;;;;;;;26.25;22.25;;;;;8.51;48.50;101523.66;4933855;29;11440;-70
2021/11/23 11:38:40;;;;;;;;;10.75;10.75;;;;;8.34;48.52;101524.97;4921836;29;12372;-70
2021/11/23 11:41:42;;;;;;;;;10.75;10.75;;;;;8.35;48.88;101523.88;4922150;29;11465;-71
2021/11/23 11:44:42;;;;;;;;;16.00;14.25;;;;;8.56;48.75;101527.19;4932216;29;11571;-70
2021/11/23 11:47:41;;;;;;;;;13.00;10.50;;;;;8.31;48.78;101528.31;4934165;29;11595;-70
2021/11/23 11:51:07;;;;;;;;;12.50;12.50;;;;;8.33;49.38;101525.25;4932234;29;11485;-70
2021/11/23 11:54:20;;;;;;;;;15.00;15.00;;;;;8.12;49.96;101527.44;4932509;29;11528;-70
2021/11/23 11:57:31;;;;;;;;;14.50;14.50;;;;;7.88;51.61;101527.44;4916420;29;11491;-71
2021/11/23 12:00:36;;;;;;;;;33.00;30.50;;;;;7.87;51.20;101534.06;4915979;29;11511;-70
2021/11/23 12:03:36;;;;;;;;;31.00;28.75;;;;;8.15;50.87;101534.31;4916085;29;11561;-71
2021/11/23 12:07:06;;;;;;;;;22.25;20.50;;;;;8.05;50.29;101529.72;4903909;29;11796;-72
2021/11/23 12:10:16;;;;;;;;;27.25;23.50;;;;;8.10;49.80;101535.19;4924903;29;11538;-71
2021/11/23 12:13:22;;;;;;;;;27.50;26.00;;;;;7.77;49.97;101531.44;4933883;29;11545;-71
2021/11/23 12:16:46;;;;;;;;;17.00;15.00;;;;;7.71;50.38;101532.59;4921728;29;12474;-71
2021/11/23 12:20:01;;;;;;;;;22.25;21.50;;;;;7.38;51.17;101540.63;4934207;29;11535;-70
2021/11/23 12:23:17;;;;;;;;;55.25;46.25;;;;;7.63;50.32;101553.31;4935005;29;11622;-70
2021/11/23 12:26:15;;;;;;;;;18.00;14.00;;;;;7.42;50.98;101549.09;4934778;29;11623;-70
2021/11/23 12:29:12;;;;;;;;;22.00;22.00;;;;;7.50;51.01;101548.47;4934860;29;11548;-69
2021/11/23 12:32:09;;;;;;;;;28.50;25.75;;;;;7.17;51.54;101552.91;4934968;29;11561;-70
2021/11/23 12:35:08;;;;;;;;;30.75;28.00;;;;;7.27;51.07;101561.06;4934496;29;11522;-70
2021/11/23 12:38:04;;;;;;;;;18.25;18.25;;;;;7.17;50.35;101561.97;4934852;29;11548;-70
2021/11/23 12:41:22;;;;;;;;;23.00;21.75;;;;;7.34;50.75;101567.06;4934743;29;12329;-70
2021/11/23 12:44:24;;;;;;;;;23.75;22.75;;;;;7.28;50.29;101576.47;4922075;29;11656;-72
2021/11/23 12:47:21;;;;;;;;;33.50;28.25;;;;;7.22;50.19;101570.19;4934783;29;11505;-73
2021/11/23 12:50:18;;;;;;;;;56.00;43.50;;;;;7.03;50.22;101573.91;4934795;29;11546;-74
2021/11/23 12:53:17;;;;;;;;;30.25;29.75;;;;;7.01;51.16;101571.44;4934844;29;11633;-73
2021/11/23 12:56:13;;;;;;;;;16.75;16.50;;;;;6.82;51.84;101570.44;4935022;29;11532;-73
2021/11/23 12:59:47;;;;;;;;;10.50;10.50;;;;;6.69;52.11;101578.25;4933034;29;11545;-73
2021/11/23 13:02:50;;;;;;;;;12.50;12.50;;;;;6.85;52.13;101576.22;4915241;29;11512;-72
2021/11/23 13:05:46;;;;;;;;;24.75;22.75;;;;;6.95;52.66;101578.06;4919023;29;11636;-73
2021/11/23 13:08:56;;;;;;;;;27.50;27.25;;;;;6.92;52.81;101579.47;4933184;29;11648;-74
2021/11/23 13:11:39;;;;;;;;;23.75;22.50;;;;;7.03;52.09;101585.72;4916722;29;11569;-73
2021/11/23 13:15:08;;;;;;;;;31.00;30.00;;;;;6.93;52.66;101583.88;4914423;29;11652;-74
2021/11/23 13:18:07;;;;;;;;;23.50;23.50;;;;;6.91;53.21;101593.53;4937637;29;11540;-72
2021/11/23 13:21:06;;;;;;;;;26.00;25.75;;;;;6.81;53.48;101597.13;4921652;28;11559;-72
2021/11/23 13:24:02;;;;;;;;;42.00;37.25;;;;;6.65;54.01;101601.88;4935247;29;12369;-73
2021/11/23 13:27:00;;;;;;;;;37.50;37.50;;;;;6.67;54.69;101602.44;4937114;29;11572;-73
2021/11/23 14:02:27;;;;;;;;;36.00;36.00;;;;;6.25;55.14;101597.38;5791725;23;14015;31
2021/11/23 14:14:57;;;;;;;;;24.00;22.00;;;;;6.13;54.41;101607.84;6055749;23;12714;31
2021/11/23 14:28:41;;;;;;;;;24.50;23.25;;;;;5.95;54.80;101601.03;5001480;23;11494;-79
2021/11/23 14:31:42;;;;;;;;;32.67;31.33;;;;;6.14;55.12;101615.00;5895971;23;11656;-71
2021/11/23 14:50:18;;;;;;;;;27.67;27.67;;;;;5.69;56.88;101616.69;5401670;23;11741;-63
2021/11/23 14:53:39;;;;;;;;;21.00;21.00;;;;;5.47;56.63;101621.63;5346199;23;11672;31
2021/11/23 16:03:20;;;;;;;;;18.25;18.25;;;;;4.55;60.75;101664.44;4323117;29;15284045;-74